Monday, January 21, 2019, 6:01 PM EST
Back to Local

KPHL, Philadelphia International Airpt

Location: Philadelphia, PA, United States Lat: 39.867
Local Time: 6:01 PM EST (23:01 GMT) Lon: -75.233
Time Zone: US/Eastern Elev: 19 ft

Show me the last for .
Show Coded

Time T Td Feel RH Dir Speed Gust Alt SLP Vis Weather Sky Remarks
2019-01-21 16:54 19 -9 -1 27 310° 26 35 30.31 30.31 10 FEW200 Peak wind: 34 mph (30 kts) from 310° at 53 min
2019-01-21 15:54 19 -10 -1 26 310° 26 35 30.28 30.28 10 CLR Peak wind: 37 mph (33 kts) from 310° at 31 min
2019-01-21 14:54 18 -11 -3 26 300° 24 36 30.26 30.26 10 CLR Peak wind: 37 mph (33 kts) from 330° at 07 min
2019-01-21 13:54 17 -11 -4 27 320° 28 37 30.24 30.24 10 FEW060 Peak wind: 41 mph (36 kts) from 330° at 21 min
2019-01-21 12:54 16 -9 -6 31 310° 26 37 30.23 30.23 10 FEW060 FEW100 Peak wind: 43 mph (38 kts) from 320° at 22 min
6-hr Min Temp (1pm): 10.0°F
6-hr Max Temp (1pm): 17.1°F
2019-01-21 11:54 15 -10 -6 31 310° 24 33 30.22 30.22 10 FEW060 FEW100 Peak wind: 39 mph (34 kts) from 300° at 22 min
2019-01-21 10:54 13 -10 -10 34 290° 28 36 30.21 30.21 10 FEW048 FEW090 Peak wind: 37 mph (33 kts) from 280° at 31 min
2019-01-21 09:54 12 -10 -11 35 300° 24 37 30.18 30.18 10 FEW048 FEW090 Peak wind: 40 mph (35 kts) from 310° at 24 min
2019-01-21 08:54 11 -9 -13 39 300° 25 36 30.14 30.14 10 FEW040 Peak wind: 37 mph (33 kts) from 280° at 18 min
2019-01-21 07:54 10 -9 -13 40 310° 22 35 30.11 30.11 10 FEW040 Peak wind: 39 mph (34 kts) from 280° at 00 min
2019-01-21 06:54 10 -9 -13 40 300° 24 35 30.08 30.07 10 FEW040 Peak wind: 39 mph (34 kts) from 290° at 01 min
24-hr Precip Total (7am): 0.10"
6-hr Min Temp (7am): 10.0°F
6-hr Max Temp (7am): 16.0°F
2019-01-21 05:54 11 -8 -11 41 300° 21 30 30.05 30.05 10 CLR Peak wind: 34 mph (30 kts) from 310° at 56 min
2019-01-21 04:54 11 -9 -13 39 300° 29 36 30.03 30.03 10 CLR Peak wind: 35 mph (31 kts) from 310° at 52 min
2019-01-21 03:54 12 -9 -11 37 310° 25 37 30.00 30.00 10 CLR Peak wind: 36 mph (32 kts) from 310° at 46 min
2019-01-21 02:54 13 -6 -9 41 290° 23 32 29.99 29.98 10 FEW160 Peak wind: 34 mph (30 kts) from 300° at 22 min
2019-01-21 01:54 14 -5 -3 41 300° 17 - 29.97 29.96 10 CLR Peak wind: 35 mph (31 kts) from 310° at 35 min
2019-01-21 00:54 16 -2 -6 44 300° 28 36 29.93 29.93 10 FEW043 FEW065 Peak wind: 35 mph (31 kts) from 310° at 54 min
6-hr Min Temp (1am): 16.0°F
6-hr Max Temp (1am): 24.1°F
2019-01-20 23:54 17 -1 4 44 300° 13 - 29.91 29.90 10 FEW040 FEW060 Peak wind: 34 mph (30 kts) from 310° at 35 min
24-hr Min Temp (12am): 17.1°F
24-hr Max Temp (12am): 50.0°F
2019-01-20 22:54 19 2 0 46 310° 22 30 29.87 29.87 10 SCT043 Peak wind: 40 mph (35 kts) from 310° at 15 min
2019-01-20 21:54 20 2 -1 44 320° 29 38 29.83 29.83 10 BKN043 Peak wind: 41 mph (36 kts) from 300° at 31 min
2019-01-20 20:54 23 8 5 52 310° 22 30 29.78 29.78 10 SCT043 Peak wind: 33 mph (29 kts) from 330° at 16 min
2019-01-20 19:54 23 8 4 52 320° 24 35 29.75 29.75 10 SCT031 Peak wind: 46 mph (40 kts) from 320° at 57 min
2019-01-20 18:54 24 8 5 49 320° 24 41 29.73 29.72 10 FEW031 Peak wind: 41 mph (36 kts) from 330° at 41 min
6-hr Min Temp (7pm): 24.1°F
6-hr Max Temp (7pm): 39.9°F

Support USWX by starting your Amazon purchase here.